PWSweather.com
Personal Weather Stations
Station Observations
IRIVIRED2
île Maurice, Petit RaffrayMU

île MauricePetit RaffrayMU

Lat: -20.02533, Lon: 57.61883

Elevation: 183

Station Type: Davis Vantage Pro2 plus

http://www.meteomauritius.altervista.org

Latest ConditionsUpdated 11:20:00 PM GMT+04:04 Sunday, May 20, 2018
Currently Today's Max Today's Min Today's Average
Temperature 70.4°F21.3°C 79.1°F26.2°C 70.1°F21.2°C 74.2°F23.4°C
Dew Point 67.3°F19.6°C 71.0°F21.7°C 65.9°F18.8°C 68.5°F20.3°C
Winds 2.3 mph SE3.7 kmh SE 13.8 mph ESE22.2 kmh ESE - 4.9 mph 7.9 kmh
Wind Gusts 5.8 mph9.3 kmh 21.9 mph35.2 kmh - -
Humidity 90% 91% 68% 83%
Pressure 30.04 in1017.3 mb 30.04 in1017.3 mb 29.97 in1014.9 mb -
Precipitation - 0.04 in1.0 mm - -
Hour Temp Dew Point Humidity Winds Wind Gusts Pressure Precip Precip Rate Daily Precip Total
11:20 PM 70.4°F21.3°C 67.3°F19.6°C 90% 2.3 mph SE3.7 kmh SE 5.8 mph9.3 kmh 30.04 in1017.3 mb - 0.00 in0.0 mm 0.04 in1.0 mm
11:10 PM 70.1°F21.2°C 67.3°F19.6°C 91% 6.9 mph ESE11.1 kmh ESE 10.4 mph16.7 kmh 30.04 in1017.3 mb - 0.01 in0.3 mm 0.04 in1.0 mm
11:00 PM 70.7°F21.5°C 67.9°F19.9°C 91% 9.2 mph E14.8 kmh E 16.1 mph25.9 kmh 30.04 in1017.3 mb - 0.00 in0.0 mm 0.03 in0.8 mm
10:50 PM 71.3°F21.8°C 68.2°F20.1°C 90% 2.3 mph ESE3.7 kmh ESE 12.7 mph20.4 kmh 30.04 in1017.3 mb - 0.00 in0.0 mm 0.03 in0.8 mm
10:40 PM 71.1°F21.7°C 68.4°F20.2°C 91% 3.5 mph SE5.6 kmh SE 4.6 mph7.4 kmh 30.04 in1017.3 mb - 0.00 in0.0 mm 0.03 in0.8 mm
10:30 PM 71.0°F21.7°C 68.2°F20.1°C 91% 1.2 mph SSE1.9 kmh SSE 4.6 mph7.4 kmh 30.04 in1017.3 mb - 0.00 in0.0 mm 0.03 in0.8 mm
10:20 PM 70.7°F21.5°C 68.0°F20.0°C 91% 4.6 mph SE7.4 kmh SE 6.9 mph11.1 kmh 30.03 in1016.9 mb - 0.00 in0.0 mm 0.03 in0.8 mm
10:10 PM 70.6°F21.4°C 67.8°F19.9°C 91% 2.3 mph SSE3.7 kmh SSE 3.5 mph5.6 kmh 30.03 in1016.9 mb - 0.00 in0.0 mm 0.03 in0.8 mm
10:00 PM 70.5°F21.4°C 67.7°F19.8°C 91% 3.5 mph SSE5.6 kmh SSE 5.8 mph9.3 kmh 30.03 in1016.9 mb - 0.00 in0.0 mm 0.03 in0.8 mm
09:50 PM 70.4°F21.3°C 67.6°F19.8°C 91% 2.3 mph SE3.7 kmh SE 6.9 mph11.1 kmh 30.03 in1016.9 mb - 0.00 in0.0 mm 0.03 in0.8 mm
09:40 PM 70.3°F21.3°C 67.6°F19.8°C 91% 3.5 mph SSE5.6 kmh SSE 4.6 mph7.4 kmh 30.03 in1016.9 mb - 0.00 in0.0 mm 0.03 in0.8 mm
09:30 PM 70.4°F21.3°C 67.6°F19.8°C 91% 3.5 mph SE5.6 kmh SE 8.1 mph13.0 kmh 30.03 in1016.9 mb - 0.00 in0.0 mm 0.03 in0.8 mm
09:20 PM 70.6°F21.4°C 67.8°F19.9°C 91% Calm Calm -- 30.02 in1016.6 mb - 0.00 in0.0 mm 0.03 in0.8 mm
09:10 PM 70.9°F21.6°C 68.1°F20.1°C 91% 3.5 mph SSE5.6 kmh SSE 4.6 mph7.4 kmh 30.02 in1016.6 mb - 0.00 in0.0 mm 0.03 in0.8 mm
09:00 PM 71.1°F21.7°C 68.3°F20.2°C 91% 4.6 mph SSE7.4 kmh SSE 8.1 mph13.0 kmh 30.02 in1016.6 mb - 0.00 in0.0 mm 0.03 in0.8 mm
08:50 PM 71.2°F21.8°C 68.5°F20.3°C 91% 2.3 mph SSE3.7 kmh SSE 6.9 mph11.1 kmh 30.02 in1016.6 mb - 0.01 in0.3 mm 0.03 in0.8 mm
08:40 PM 71.5°F21.9°C 68.7°F20.4°C 91% 3.5 mph SE5.6 kmh SE 4.6 mph7.4 kmh 30.02 in1016.6 mb - 0.00 in0.0 mm 0.02 in0.5 mm
08:30 PM 71.7°F22.1°C 68.9°F20.5°C 91% 2.3 mph SE3.7 kmh SE 3.5 mph5.6 kmh 30.02 in1016.6 mb - 0.00 in0.0 mm 0.02 in0.5 mm
08:20 PM 72.2°F22.3°C 69.1°F20.6°C 90% 1.2 mph S1.9 kmh S 3.5 mph5.6 kmh 30.02 in1016.6 mb - 0.01 in0.3 mm 0.02 in0.5 mm
08:10 PM 72.8°F22.7°C 69.4°F20.8°C 89% 3.5 mph SSE5.6 kmh SSE 4.6 mph7.4 kmh 30.02 in1016.6 mb - 0.02 in0.5 mm 0.02 in0.5 mm
08:00 PM 73.0°F22.8°C 69.2°F20.7°C 88% 4.6 mph SE7.4 kmh SE 9.2 mph14.8 kmh 30.02 in1016.6 mb - 0.00 in0.0 mm 0.00 in0.0 mm
07:50 PM 73.4°F23.0°C 69.2°F20.7°C 87% 1.2 mph S1.9 kmh S 4.6 mph7.4 kmh 30.02 in1016.6 mb - 0.00 in0.0 mm 0.00 in0.0 mm
07:40 PM 73.9°F23.3°C 69.8°F21.0°C 87% Calm Calm -- 30.02 in1016.6 mb - 0.00 in0.0 mm 0.00 in0.0 mm
07:30 PM 73.9°F23.3°C 70.1°F21.2°C 88% Calm Calm -- 30.02 in1016.6 mb - 0.00 in0.0 mm 0.00 in0.0 mm
07:20 PM 73.7°F23.2°C 69.6°F20.9°C 87% 1.2 mph E1.9 kmh E 3.5 mph5.6 kmh 30.02 in1016.6 mb - 0.00 in0.0 mm 0.00 in0.0 mm
06:50 PM 73.6°F23.1°C 69.5°F20.8°C 87% 1.2 mph ESE1.9 kmh ESE 8.1 mph13.0 kmh 30.00 in1015.9 mb - 0.00 in0.0 mm 0.00 in0.0 mm
06:40 PM 73.7°F23.2°C 69.6°F20.9°C 87% 4.6 mph ENE7.4 kmh ENE 9.2 mph14.8 kmh 30.00 in1015.9 mb - 0.00 in0.0 mm 0.00 in0.0 mm
06:30 PM 73.7°F23.2°C 69.6°F20.9°C 87% 5.8 mph E9.3 kmh E 11.5 mph18.5 kmh 30.00 in1015.9 mb - 0.00 in0.0 mm 0.00 in0.0 mm
06:20 PM 73.9°F23.3°C 69.8°F21.0°C 87% 8.1 mph ENE13.0 kmh ENE 13.8 mph22.2 kmh 30.00 in1015.9 mb - 0.00 in0.0 mm 0.00 in0.0 mm
06:10 PM 74.7°F23.7°C 69.9°F21.1°C 85% 8.1 mph ENE13.0 kmh ENE 11.5 mph18.5 kmh 30.00 in1015.9 mb - 0.00 in0.0 mm 0.00 in0.0 mm
06:00 PM 75.0°F23.9°C 68.8°F20.4°C 81% 5.8 mph E9.3 kmh E 10.4 mph16.7 kmh 29.99 in1015.6 mb - 0.00 in0.0 mm 0.00 in0.0 mm
05:50 PM 75.2°F24.0°C 68.6°F20.3°C 80% 6.9 mph E11.1 kmh E 10.4 mph16.7 kmh 29.99 in1015.6 mb - 0.00 in0.0 mm 0.00 in0.0 mm
05:40 PM 75.1°F23.9°C 68.9°F20.5°C 81% 3.5 mph E5.6 kmh E 11.5 mph18.5 kmh 29.99 in1015.6 mb - 0.00 in0.0 mm 0.00 in0.0 mm
05:30 PM 75.1°F23.9°C 69.6°F20.9°C 83% 6.9 mph E11.1 kmh E 10.4 mph16.7 kmh 29.98 in1015.2 mb - 0.00 in0.0 mm 0.00 in0.0 mm
05:20 PM 75.2°F24.0°C 70.0°F21.1°C 84% 2.3 mph E3.7 kmh E 6.9 mph11.1 kmh 29.98 in1015.2 mb - 0.00 in0.0 mm 0.00 in0.0 mm
05:10 PM 75.7°F24.3°C 70.1°F21.2°C 83% 2.3 mph ESE3.7 kmh ESE 11.5 mph18.5 kmh 29.98 in1015.2 mb - 0.00 in0.0 mm 0.00 in0.0 mm
05:00 PM 75.6°F24.2°C 69.7°F20.9°C 82% Calm Calm 3.5 mph5.6 kmh 29.98 in1015.2 mb - 0.00 in0.0 mm 0.00 in0.0 mm
04:50 PM 75.6°F24.2°C 69.7°F20.9°C 82% 5.8 mph E9.3 kmh E 8.1 mph13.0 kmh 29.97 in1014.9 mb - 0.00 in0.0 mm 0.00 in0.0 mm
04:40 PM 75.8°F24.3°C 69.9°F21.1°C 82% 4.6 mph E7.4 kmh E 5.8 mph9.3 kmh 29.97 in1014.9 mb - 0.00 in0.0 mm 0.00 in0.0 mm
04:30 PM 76.1°F24.5°C 69.8°F21.0°C 81% 4.6 mph E7.4 kmh E 11.5 mph18.5 kmh 29.97 in1014.9 mb - 0.00 in0.0 mm 0.00 in0.0 mm
04:20 PM 76.2°F24.6°C 69.6°F20.9°C 80% 4.6 mph ESE7.4 kmh ESE 9.2 mph14.8 kmh 29.97 in1014.9 mb - 0.00 in0.0 mm 0.00 in0.0 mm
04:10 PM 76.6°F24.8°C 69.6°F20.9°C 79% 8.1 mph SE13.0 kmh SE 12.7 mph20.4 kmh 29.97 in1014.9 mb - 0.00 in0.0 mm 0.00 in0.0 mm
04:00 PM 77.3°F25.2°C 71.0°F21.7°C 81% 5.8 mph E9.3 kmh E 12.7 mph20.4 kmh 29.97 in1014.9 mb - 0.00 in0.0 mm 0.00 in0.0 mm
03:50 PM 77.3°F25.2°C 70.6°F21.4°C 80% 6.9 mph E11.1 kmh E 13.8 mph22.2 kmh 29.97 in1014.9 mb - 0.00 in0.0 mm 0.00 in0.0 mm
03:40 PM 77.0°F25.0°C 70.7°F21.5°C 81% 4.6 mph E7.4 kmh E 16.1 mph25.9 kmh 29.97 in1014.9 mb - 0.00 in0.0 mm 0.00 in0.0 mm
03:30 PM 77.1°F25.1°C 70.8°F21.6°C 81% 6.9 mph E11.1 kmh E 16.1 mph25.9 kmh 29.97 in1014.9 mb - 0.00 in0.0 mm 0.00 in0.0 mm
03:20 PM 76.8°F24.9°C 70.5°F21.4°C 81% 2.3 mph SE3.7 kmh SE 9.2 mph14.8 kmh 29.97 in1014.9 mb - 0.00 in0.0 mm 0.00 in0.0 mm
03:10 PM 76.6°F24.8°C 70.4°F21.3°C 81% 6.9 mph ESE11.1 kmh ESE 11.5 mph18.5 kmh 29.97 in1014.9 mb - 0.00 in0.0 mm 0.00 in0.0 mm
03:00 PM 76.3°F24.6°C 70.0°F21.1°C 81% 5.8 mph E9.3 kmh E 16.1 mph25.9 kmh 29.98 in1015.2 mb - 0.00 in0.0 mm 0.00 in0.0 mm
02:50 PM 76.3°F24.6°C 70.4°F21.3°C 82% 3.5 mph E5.6 kmh E 11.5 mph18.5 kmh 29.97 in1014.9 mb - 0.00 in0.0 mm 0.00 in0.0 mm
02:40 PM 76.4°F24.7°C 70.1°F21.2°C 81% 6.9 mph E11.1 kmh E 15.0 mph24.1 kmh 29.97 in1014.9 mb - 0.00 in0.0 mm 0.00 in0.0 mm
02:30 PM 78.1°F25.6°C 69.9°F21.1°C 76% 9.2 mph E14.8 kmh E 13.8 mph22.2 kmh 29.97 in1014.9 mb - 0.00 in0.0 mm 0.00 in0.0 mm
02:20 PM 78.0°F25.6°C 68.3°F20.2°C 72% 4.6 mph SE7.4 kmh SE 10.4 mph16.7 kmh 29.97 in1014.9 mb - 0.00 in0.0 mm 0.00 in0.0 mm
02:10 PM 78.1°F25.6°C 67.9°F19.9°C 71% 11.5 mph SE18.5 kmh SE 16.1 mph25.9 kmh 29.97 in1014.9 mb - 0.00 in0.0 mm 0.00 in0.0 mm
02:00 PM 78.3°F25.7°C 68.1°F20.1°C 71% 8.1 mph ESE13.0 kmh ESE 12.7 mph20.4 kmh 29.97 in1014.9 mb - 0.00 in0.0 mm 0.00 in0.0 mm
01:50 PM 78.2°F25.7°C 68.8°F20.4°C 73% 8.1 mph SE13.0 kmh SE 15.0 mph24.1 kmh 29.97 in1014.9 mb - 0.00 in0.0 mm 0.00 in0.0 mm
01:40 PM 78.6°F25.9°C 68.4°F20.2°C 71% 10.4 mph ESE16.7 kmh ESE 15.0 mph24.1 kmh 29.97 in1014.9 mb - 0.00 in0.0 mm 0.00 in0.0 mm
01:30 PM 79.0°F26.1°C 68.7°F20.4°C 71% 6.9 mph SE11.1 kmh SE 16.1 mph25.9 kmh 29.97 in1014.9 mb - 0.00 in0.0 mm 0.00 in0.0 mm
01:20 PM 78.8°F26.0°C 68.2°F20.1°C 70% 12.7 mph SE20.4 kmh SE 16.1 mph25.9 kmh 29.98 in1015.2 mb - 0.00 in0.0 mm 0.00 in0.0 mm
01:10 PM 79.1°F26.2°C 68.1°F20.1°C 69% 9.2 mph SE14.8 kmh SE 19.6 mph31.5 kmh 29.98 in1015.2 mb - 0.00 in0.0 mm 0.00 in0.0 mm
01:00 PM 78.8°F26.0°C 67.3°F19.6°C 68% 10.4 mph ESE16.7 kmh ESE 19.6 mph31.5 kmh 29.98 in1015.2 mb - 0.00 in0.0 mm 0.00 in0.0 mm
12:50 PM 78.8°F26.0°C 68.6°F20.3°C 71% 11.5 mph SE18.5 kmh SE 15.0 mph24.1 kmh 29.99 in1015.6 mb - 0.00 in0.0 mm 0.00 in0.0 mm
12:40 PM 78.5°F25.8°C 68.3°F20.2°C 71% 9.2 mph E14.8 kmh E 19.6 mph31.5 kmh 29.99 in1015.6 mb - 0.00 in0.0 mm 0.00 in0.0 mm
12:30 PM 78.8°F26.0°C 69.0°F20.6°C 72% 13.8 mph ESE22.2 kmh ESE 21.9 mph35.2 kmh 29.99 in1015.6 mb - 0.00 in0.0 mm 0.00 in0.0 mm
12:20 PM 78.6°F25.9°C 68.4°F20.2°C 71% 9.2 mph SSE14.8 kmh SSE 17.3 mph27.8 kmh 29.99 in1015.6 mb - 0.00 in0.0 mm 0.00 in0.0 mm
12:10 PM 77.8°F25.4°C 67.6°F19.8°C 71% 10.4 mph SE16.7 kmh SE 15.0 mph24.1 kmh 29.99 in1015.6 mb - 0.00 in0.0 mm 0.00 in0.0 mm
12:00 PM 76.7°F24.8°C 68.9°F20.5°C 77% 5.8 mph SE9.3 kmh SE 8.1 mph13.0 kmh 30.00 in1015.9 mb - 0.00 in0.0 mm 0.00 in0.0 mm
11:50 AM 76.5°F24.7°C 69.2°F20.7°C 78% 8.1 mph SE13.0 kmh SE 11.5 mph18.5 kmh 30.00 in1015.9 mb - 0.00 in0.0 mm 0.00 in0.0 mm
11:40 AM 76.0°F24.4°C 70.5°F21.4°C 83% 8.1 mph ESE13.0 kmh ESE 15.0 mph24.1 kmh 30.01 in1016.3 mb - 0.00 in0.0 mm 0.00 in0.0 mm
11:30 AM 75.8°F24.3°C 70.6°F21.4°C 84% 9.2 mph ESE14.8 kmh ESE 16.1 mph25.9 kmh 30.02 in1016.6 mb - 0.00 in0.0 mm 0.00 in0.0 mm
11:20 AM 74.8°F23.8°C 70.3°F21.3°C 86% 5.8 mph E9.3 kmh E 11.5 mph18.5 kmh 30.02 in1016.6 mb - 0.00 in0.0 mm 0.00 in0.0 mm
11:10 AM 73.6°F23.1°C 69.8°F21.0°C 88% 4.6 mph ESE7.4 kmh ESE 11.5 mph18.5 kmh 30.02 in1016.6 mb - 0.00 in0.0 mm 0.00 in0.0 mm
11:00 AM 72.9°F22.7°C 69.5°F20.8°C 89% 5.8 mph ESE9.3 kmh ESE 11.5 mph18.5 kmh 30.03 in1016.9 mb - 0.00 in0.0 mm 0.00 in0.0 mm
10:50 AM 73.2°F22.9°C 69.0°F20.6°C 87% 8.1 mph ESE13.0 kmh ESE 13.8 mph22.2 kmh 30.03 in1016.9 mb - 0.00 in0.0 mm 0.00 in0.0 mm
10:40 AM 73.6°F23.1°C 68.5°F20.3°C 84% 5.8 mph ESE9.3 kmh ESE 8.1 mph13.0 kmh 30.04 in1017.3 mb - 0.00 in0.0 mm 0.00 in0.0 mm
10:30 AM 75.2°F24.0°C 69.4°F20.8°C 82% 5.8 mph SE9.3 kmh SE 9.2 mph14.8 kmh 30.04 in1017.3 mb - 0.00 in0.0 mm 0.00 in0.0 mm
10:20 AM 76.8°F24.9°C 69.0°F20.6°C 77% 4.6 mph ESE7.4 kmh ESE 11.5 mph18.5 kmh 30.04 in1017.3 mb - 0.00 in0.0 mm 0.00 in0.0 mm
10:10 AM 77.0°F25.0°C 68.5°F20.3°C 75% 8.1 mph SE13.0 kmh SE 18.4 mph29.6 kmh 30.04 in1017.3 mb - 0.00 in0.0 mm 0.00 in0.0 mm
10:00 AM 77.1°F25.1°C 67.8°F19.9°C 73% 10.4 mph ESE16.7 kmh ESE 17.3 mph27.8 kmh 30.04 in1017.3 mb - 0.00 in0.0 mm 0.00 in0.0 mm
09:50 AM 77.4°F25.2°C 67.7°F19.8°C 72% 10.4 mph ESE16.7 kmh ESE 16.1 mph25.9 kmh 30.04 in1017.3 mb - 0.00 in0.0 mm 0.00 in0.0 mm
09:40 AM 77.4°F25.2°C 67.6°F19.8°C 72% 6.9 mph SE11.1 kmh SE 11.5 mph18.5 kmh 30.04 in1017.3 mb - 0.00 in0.0 mm 0.00 in0.0 mm
09:30 AM 76.9°F24.9°C 69.1°F20.6°C 77% 11.5 mph SE18.5 kmh SE 13.8 mph22.2 kmh 30.03 in1016.9 mb - 0.00 in0.0 mm 0.00 in0.0 mm
09:20 AM 76.3°F24.6°C 68.6°F20.3°C 77% 8.1 mph SE13.0 kmh SE 13.8 mph22.2 kmh 30.03 in1016.9 mb - 0.00 in0.0 mm 0.00 in0.0 mm
09:10 AM 76.2°F24.6°C 68.5°F20.3°C 77% 5.8 mph SE9.3 kmh SE 12.7 mph20.4 kmh 30.03 in1016.9 mb - 0.00 in0.0 mm 0.00 in0.0 mm
09:00 AM 76.4°F24.7°C 68.7°F20.4°C 77% 3.5 mph SE5.6 kmh SE 11.5 mph18.5 kmh 30.02 in1016.6 mb - 0.00 in0.0 mm 0.00 in0.0 mm
08:50 AM 76.8°F24.9°C 68.7°F20.4°C 76% 6.9 mph SE11.1 kmh SE 17.3 mph27.8 kmh 30.02 in1016.6 mb - 0.00 in0.0 mm 0.00 in0.0 mm
08:40 AM 76.6°F24.8°C 68.5°F20.3°C 76% 5.8 mph SE9.3 kmh SE 11.5 mph18.5 kmh 30.02 in1016.6 mb - 0.00 in0.0 mm 0.00 in0.0 mm
08:30 AM 76.3°F24.6°C 67.8°F19.9°C 75% 8.1 mph SE13.0 kmh SE 16.1 mph25.9 kmh 30.02 in1016.6 mb - 0.00 in0.0 mm 0.00 in0.0 mm
08:20 AM 76.0°F24.4°C 68.6°F20.3°C 78% 8.1 mph SE13.0 kmh SE 11.5 mph18.5 kmh 30.02 in1016.6 mb - 0.00 in0.0 mm 0.00 in0.0 mm
08:10 AM 75.1°F23.9°C 68.5°F20.3°C 80% 10.4 mph SE16.7 kmh SE 12.7 mph20.4 kmh 30.02 in1016.6 mb - 0.00 in0.0 mm 0.00 in0.0 mm
08:00 AM 74.5°F23.6°C 68.3°F20.2°C 81% 6.9 mph SE11.1 kmh SE 11.5 mph18.5 kmh 30.02 in1016.6 mb - 0.00 in0.0 mm 0.00 in0.0 mm
07:50 AM 74.3°F23.5°C 68.4°F20.2°C 82% 8.1 mph SE13.0 kmh SE 10.4 mph16.7 kmh 30.02 in1016.6 mb - 0.00 in0.0 mm 0.00 in0.0 mm
07:40 AM 74.2°F23.4°C 68.3°F20.2°C 82% 5.8 mph SE9.3 kmh SE 12.7 mph20.4 kmh 30.02 in1016.6 mb - 0.00 in0.0 mm 0.00 in0.0 mm
07:30 AM 74.0°F23.3°C 68.2°F20.1°C 82% 5.8 mph SE9.3 kmh SE 5.8 mph9.3 kmh 30.02 in1016.6 mb - 0.00 in0.0 mm 0.00 in0.0 mm
07:20 AM 73.9°F23.3°C 68.4°F20.2°C 83% 4.6 mph SE7.4 kmh SE 8.1 mph13.0 kmh 30.01 in1016.3 mb - 0.00 in0.0 mm 0.00 in0.0 mm
07:10 AM 73.8°F23.2°C 68.3°F20.2°C 83% 5.8 mph SE9.3 kmh SE 10.4 mph16.7 kmh 30.01 in1016.3 mb - 0.00 in0.0 mm 0.00 in0.0 mm
07:00 AM 73.6°F23.1°C 68.5°F20.3°C 84% 4.6 mph SE7.4 kmh SE 11.5 mph18.5 kmh 30.00 in1015.9 mb - 0.00 in0.0 mm 0.00 in0.0 mm
06:50 AM 73.3°F22.9°C 68.2°F20.1°C 84% 5.8 mph SE9.3 kmh SE 11.5 mph18.5 kmh 30.00 in1015.9 mb - 0.00 in0.0 mm 0.00 in0.0 mm
06:40 AM 73.0°F22.8°C 67.9°F19.9°C 84% 4.6 mph SE7.4 kmh SE 11.5 mph18.5 kmh 30.00 in1015.9 mb - 0.00 in0.0 mm 0.00 in0.0 mm
06:30 AM 73.1°F22.8°C 67.9°F19.9°C 84% 3.5 mph SE5.6 kmh SE 6.9 mph11.1 kmh 30.00 in1015.9 mb - 0.00 in0.0 mm 0.00 in0.0 mm
06:20 AM 73.2°F22.9°C 67.7°F19.8°C 83% Calm Calm 3.5 mph5.6 kmh 29.99 in1015.6 mb - 0.00 in0.0 mm 0.00 in0.0 mm
06:10 AM 73.3°F22.9°C 67.8°F19.9°C 83% 3.5 mph SSE5.6 kmh SSE 5.8 mph9.3 kmh 29.99 in1015.6 mb - 0.00 in0.0 mm 0.00 in0.0 mm
06:00 AM 73.1°F22.8°C 67.3°F19.6°C 82% 2.3 mph SE3.7 kmh SE 11.5 mph18.5 kmh 29.99 in1015.6 mb - 0.00 in0.0 mm 0.00 in0.0 mm
05:50 AM 73.0°F22.8°C 67.2°F19.6°C 82% 3.5 mph SSE5.6 kmh SSE 5.8 mph9.3 kmh 29.99 in1015.6 mb - 0.00 in0.0 mm 0.00 in0.0 mm
05:40 AM 72.9°F22.7°C 67.1°F19.5°C 82% 3.5 mph SE5.6 kmh SE 3.5 mph5.6 kmh 29.98 in1015.2 mb - 0.00 in0.0 mm 0.00 in0.0 mm
05:30 AM 72.8°F22.7°C 67.3°F19.6°C 83% 3.5 mph SE5.6 kmh SE 4.6 mph7.4 kmh 29.98 in1015.2 mb - 0.00 in0.0 mm 0.00 in0.0 mm
05:20 AM 72.9°F22.7°C 67.8°F19.9°C 84% 2.3 mph SE3.7 kmh SE 3.5 mph5.6 kmh 29.98 in1015.2 mb - 0.00 in0.0 mm 0.00 in0.0 mm
05:10 AM 72.8°F22.7°C 67.7°F19.8°C 84% 3.5 mph SE5.6 kmh SE 6.9 mph11.1 kmh 29.98 in1015.2 mb - 0.00 in0.0 mm 0.00 in0.0 mm
05:00 AM 72.8°F22.7°C 67.7°F19.8°C 84% 2.3 mph SE3.7 kmh SE 6.9 mph11.1 kmh 29.98 in1015.2 mb - 0.00 in0.0 mm 0.00 in0.0 mm
04:50 AM 72.9°F22.7°C 67.8°F19.9°C 84% Calm Calm -- 29.98 in1015.2 mb - 0.00 in0.0 mm 0.00 in0.0 mm
04:40 AM 73.1°F22.8°C 68.0°F20.0°C 84% Calm Calm 3.5 mph5.6 kmh 29.98 in1015.2 mb - 0.00 in0.0 mm 0.00 in0.0 mm
04:30 AM 73.2°F22.9°C 68.1°F20.1°C 84% 1.2 mph SSE1.9 kmh SSE 5.8 mph9.3 kmh 29.98 in1015.2 mb - 0.00 in0.0 mm 0.00 in0.0 mm
04:20 AM 73.0°F22.8°C 67.9°F19.9°C 84% 3.5 mph SE5.6 kmh SE 9.2 mph14.8 kmh 29.98 in1015.2 mb - 0.00 in0.0 mm 0.00 in0.0 mm
04:10 AM 72.9°F22.7°C 67.8°F19.9°C 84% 4.6 mph SE7.4 kmh SE 8.1 mph13.0 kmh 29.98 in1015.2 mb - 0.00 in0.0 mm 0.00 in0.0 mm
04:00 AM 72.9°F22.7°C 67.8°F19.9°C 84% 4.6 mph SE7.4 kmh SE 8.1 mph13.0 kmh 29.98 in1015.2 mb - 0.00 in0.0 mm 0.00 in0.0 mm
03:50 AM 72.9°F22.7°C 67.8°F19.9°C 84% 3.5 mph SE5.6 kmh SE 4.6 mph7.4 kmh 29.98 in1015.2 mb - 0.00 in0.0 mm 0.00 in0.0 mm
03:40 AM 72.9°F22.7°C 67.8°F19.9°C 84% 3.5 mph SE5.6 kmh SE 3.5 mph5.6 kmh 29.98 in1015.2 mb - 0.00 in0.0 mm 0.00 in0.0 mm
03:30 AM 72.8°F22.7°C 67.3°F19.6°C 83% 3.5 mph ESE5.6 kmh ESE 8.1 mph13.0 kmh 29.98 in1015.2 mb - 0.00 in0.0 mm 0.00 in0.0 mm
03:20 AM 72.8°F22.7°C 67.4°F19.7°C 83% 3.5 mph SE5.6 kmh SE 4.6 mph7.4 kmh 29.98 in1015.2 mb - 0.00 in0.0 mm 0.00 in0.0 mm
03:10 AM 72.9°F22.7°C 67.4°F19.7°C 83% 2.3 mph ESE3.7 kmh ESE 4.6 mph7.4 kmh 29.98 in1015.2 mb - 0.00 in0.0 mm 0.00 in0.0 mm
03:00 AM 72.9°F22.7°C 67.8°F19.9°C 84% 3.5 mph SE5.6 kmh SE 8.1 mph13.0 kmh 29.98 in1015.2 mb - 0.00 in0.0 mm 0.00 in0.0 mm
02:50 AM 73.1°F22.8°C 68.3°F20.2°C 85% 4.6 mph ESE7.4 kmh ESE 4.6 mph7.4 kmh 29.98 in1015.2 mb - 0.00 in0.0 mm 0.00 in0.0 mm
02:40 AM 73.4°F23.0°C 68.6°F20.3°C 85% 6.9 mph SE11.1 kmh SE 11.5 mph18.5 kmh 29.98 in1015.2 mb - 0.00 in0.0 mm 0.00 in0.0 mm
02:30 AM 73.7°F23.2°C 68.9°F20.5°C 85% 4.6 mph SE7.4 kmh SE 10.4 mph16.7 kmh 29.98 in1015.2 mb - 0.00 in0.0 mm 0.00 in0.0 mm
02:20 AM 73.4°F23.0°C 67.6°F19.8°C 82% 3.5 mph SE5.6 kmh SE 6.9 mph11.1 kmh 29.98 in1015.2 mb - 0.00 in0.0 mm 0.00 in0.0 mm
02:10 AM 73.2°F22.9°C 67.7°F19.8°C 83% 5.8 mph SE9.3 kmh SE 8.1 mph13.0 kmh 29.98 in1015.2 mb - 0.00 in0.0 mm 0.00 in0.0 mm
02:00 AM 72.6°F22.6°C 67.8°F19.9°C 85% 4.6 mph SE7.4 kmh SE 9.2 mph14.8 kmh 29.98 in1015.2 mb - 0.00 in0.0 mm 0.00 in0.0 mm
01:50 AM 72.3°F22.4°C 67.9°F19.9°C 86% 3.5 mph SE5.6 kmh SE 8.1 mph13.0 kmh 29.98 in1015.2 mb - 0.00 in0.0 mm 0.00 in0.0 mm
01:40 AM 72.1°F22.3°C 67.7°F19.8°C 86% 1.2 mph SE1.9 kmh SE 3.5 mph5.6 kmh 29.98 in1015.2 mb - 0.00 in0.0 mm 0.00 in0.0 mm
01:30 AM 72.0°F22.2°C 67.6°F19.8°C 86% 2.3 mph SE3.7 kmh SE 6.9 mph11.1 kmh 29.98 in1015.2 mb - 0.00 in0.0 mm 0.00 in0.0 mm
01:20 AM 71.7°F22.1°C 67.6°F19.8°C 87% 1.2 mph SE1.9 kmh SE 6.9 mph11.1 kmh 29.98 in1015.2 mb - 0.00 in0.0 mm 0.00 in0.0 mm
01:10 AM 71.1°F21.7°C 67.0°F19.4°C 87% 1.2 mph S1.9 kmh S 3.5 mph5.6 kmh 29.98 in1015.2 mb - 0.00 in0.0 mm 0.00 in0.0 mm
01:00 AM 70.8°F21.6°C 66.7°F19.3°C 87% 1.2 mph SSE1.9 kmh SSE 3.5 mph5.6 kmh 29.98 in1015.2 mb - 0.00 in0.0 mm 0.00 in0.0 mm
12:50 AM 70.7°F21.5°C 66.6°F19.2°C 87% Calm Calm 2.3 mph3.7 kmh 29.98 in1015.2 mb - 0.00 in0.0 mm 0.00 in0.0 mm
12:40 AM 70.7°F21.5°C 66.3°F19.1°C 86% Calm Calm 4.6 mph7.4 kmh 29.98 in1015.2 mb - 0.00 in0.0 mm 0.00 in0.0 mm
12:30 AM 70.8°F21.6°C 66.4°F19.1°C 86% Calm Calm -- 29.98 in1015.2 mb - 0.00 in0.0 mm 0.00 in0.0 mm
12:20 AM 70.8°F21.6°C 66.4°F19.1°C 86% 1.2 mph SSE1.9 kmh SSE 3.5 mph5.6 kmh 29.98 in1015.2 mb - 0.00 in0.0 mm 0.00 in0.0 mm
12:10 AM 70.6°F21.4°C 66.2°F19.0°C 86% 1.2 mph SSE1.9 kmh SSE 3.5 mph5.6 kmh 29.99 in1015.6 mb - 0.00 in0.0 mm 0.00 in0.0 mm
12:00 AM 70.6°F21.4°C 65.9°F18.8°C 85% 1.2 mph S1.9 kmh S 3.5 mph5.6 kmh 29.99 in1015.6 mb - 0.00 in0.0 mm 0.00 in0.0 mm